sensor_id;sensor_type;location;lat;lon;timestamp;pressure;altitude;pressure_sealevel;temperature;humidity
37206;BME280;23099;42.636;23.198;2023-02-18T00:00:05;92737.75;;;1.50;81.79
37206;BME280;23099;42.636;23.198;2023-02-18T00:02:31;92741.22;;;1.45;81.42
37206;BME280;23099;42.636;23.198;2023-02-18T00:04:59;92732.84;;;1.43;81.66
37206;BME280;23099;42.636;23.198;2023-02-18T00:07:26;92732.63;;;1.39;81.68
37206;BME280;23099;42.636;23.198;2023-02-18T00:09:53;92724.06;;;1.48;80.08
37206;BME280;23099;42.636;23.198;2023-02-18T00:12:20;92726.22;;;1.46;81.00
37206;BME280;23099;42.636;23.198;2023-02-18T00:14:46;92721.53;;;1.42;80.84
37206;BME280;23099;42.636;23.198;2023-02-18T00:17:13;92717.13;;;1.38;78.10
37206;BME280;23099;42.636;23.198;2023-02-18T00:19:39;92714.09;;;1.63;74.74
37206;BME280;23099;42.636;23.198;2023-02-18T00:22:07;92715.25;;;1.90;72.96
37206;BME280;23099;42.636;23.198;2023-02-18T00:24:34;92713.44;;;2.04;73.99
37206;BME280;23099;42.636;23.198;2023-02-18T00:27:01;92706.31;;;2.18;70.44
37206;BME280;23099;42.636;23.198;2023-02-18T00:29:27;92699.88;;;2.10;74.80
37206;BME280;23099;42.636;23.198;2023-02-18T00:31:54;92695.84;;;1.99;75.76
37206;BME280;23099;42.636;23.198;2023-02-18T00:34:21;92691.09;;;2.01;73.75
37206;BME280;23099;42.636;23.198;2023-02-18T00:36:48;92689.34;;;2.10;71.84
37206;BME280;23099;42.636;23.198;2023-02-18T00:39:16;92668.72;;;2.12;70.71
37206;BME280;23099;42.636;23.198;2023-02-18T00:41:42;92667.66;;;2.13;71.83
37206;BME280;23099;42.636;23.198;2023-02-18T00:44:10;92679.38;;;2.35;69.63
37206;BME280;23099;42.636;23.198;2023-02-18T00:46:37;92666.88;;;2.40;68.85
37206;BME280;23099;42.636;23.198;2023-02-18T00:49:05;92674.78;;;2.54;68.72
37206;BME280;23099;42.636;23.198;2023-02-18T00:51:32;92674.00;;;2.67;66.88
37206;BME280;23099;42.636;23.198;2023-02-18T00:53:59;92677.13;;;2.69;68.97
37206;BME280;23099;42.636;23.198;2023-02-18T00:56:27;92670.06;;;2.78;66.56
37206;BME280;23099;42.636;23.198;2023-02-18T00:58:54;92670.19;;;2.87;65.18
37206;BME280;23099;42.636;23.198;2023-02-18T01:01:21;92670.16;;;3.01;63.92
37206;BME280;23099;42.636;23.198;2023-02-18T01:03:48;92666.22;;;3.12;65.31
37206;BME280;23099;42.636;23.198;2023-02-18T01:06:15;92661.13;;;3.15;62.37
37206;BME280;23099;42.636;23.198;2023-02-18T01:08:42;92666.69;;;3.14;65.95
37206;BME280;23099;42.636;23.198;2023-02-18T01:11:10;92668.91;;;3.20;62.66
37206;BME280;23099;42.636;23.198;2023-02-18T01:13:39;92664.78;;;3.28;62.02
37206;BME280;23099;42.636;23.198;2023-02-18T01:16:06;92663.78;;;3.38;61.91
37206;BME280;23099;42.636;23.198;2023-02-18T01:18:33;92659.41;;;3.19;65.74
37206;BME280;23099;42.636;23.198;2023-02-18T01:21:00;92657.84;;;3.18;62.39
37206;BME280;23099;42.636;23.198;2023-02-18T01:23:32;92665.63;;;3.15;65.65
37206;BME280;23099;42.636;23.198;2023-02-18T01:25:59;92658.56;;;3.10;66.91
37206;BME280;23099;42.636;23.198;2023-02-18T01:28:26;92660.53;;;3.05;67.70
37206;BME280;23099;42.636;23.198;2023-02-18T01:30:54;92665.94;;;3.00;67.75
37206;BME280;23099;42.636;23.198;2023-02-18T01:33:21;92668.78;;;2.90;67.99
37206;BME280;23099;42.636;23.198;2023-02-18T01:35:48;92668.94;;;2.71;68.34
37206;BME280;23099;42.636;23.198;2023-02-18T01:38:15;92663.94;;;2.69;67.95
37206;BME280;23099;42.636;23.198;2023-02-18T01:40:47;92662.59;;;2.58;68.02
37206;BME280;23099;42.636;23.198;2023-02-18T01:43:16;92659.81;;;2.63;69.27
37206;BME280;23099;42.636;23.198;2023-02-18T01:46:01;92663.66;;;2.57;70.71
37206;BME280;23099;42.636;23.198;2023-02-18T01:48:31;92667.47;;;2.51;71.58
37206;BME280;23099;42.636;23.198;2023-02-18T01:51:03;92666.03;;;2.45;72.55
37206;BME280;23099;42.636;23.198;2023-02-18T01:53:35;92664.34;;;2.35;72.09
37206;BME280;23099;42.636;23.198;2023-02-18T01:56:06;92671.09;;;2.28;72.57
37206;BME280;23099;42.636;23.198;2023-02-18T01:58:34;92674.09;;;2.21;72.93
37206;BME280;23099;42.636;23.198;2023-02-18T02:01:03;92671.94;;;2.09;73.08
37206;BME280;23099;42.636;23.198;2023-02-18T02:03:30;92676.22;;;2.05;73.97
37206;BME280;23099;42.636;23.198;2023-02-18T02:05:57;92680.91;;;1.95;74.75
37206;BME280;23099;42.636;23.198;2023-02-18T02:08:23;92679.72;;;1.87;73.43
37206;BME280;23099;42.636;23.198;2023-02-18T02:11:07;92676.47;;;1.76;75.25
37206;BME280;23099;42.636;23.198;2023-02-18T02:13:51;92679.53;;;1.84;76.39
37206;BME280;23099;42.636;23.198;2023-02-18T02:16:27;92674.63;;;1.77;76.95
37206;BME280;23099;42.636;23.198;2023-02-18T02:19:03;92679.22;;;1.85;75.05
37206;BME280;23099;42.636;23.198;2023-02-18T02:22:04;92672.69;;;1.83;76.29
37206;BME280;23099;42.636;23.198;2023-02-18T02:27:28;92673.97;;;1.85;75.27
37206;BME280;23099;42.636;23.198;2023-02-18T02:30:29;92669.25;;;1.82;74.88
37206;BME280;23099;42.636;23.198;2023-02-18T02:33:47;92666.44;;;1.92;74.30
37206;BME280;23099;42.636;23.198;2023-02-18T02:36:20;92666.66;;;1.96;73.09
37206;BME280;23099;42.636;23.198;2023-02-18T02:38:54;92680.31;;;1.98;72.39
37206;BME280;23099;42.636;23.198;2023-02-18T02:41:33;92673.50;;;2.10;70.67
37206;BME280;23099;42.636;23.198;2023-02-18T02:44:11;92668.44;;;2.14;70.75
37206;BME280;23099;42.636;23.198;2023-02-18T02:46:44;92664.81;;;2.10;70.37
37206;BME280;23099;42.636;23.198;2023-02-18T02:49:18;92657.47;;;2.07;70.05
37206;BME280;23099;42.636;23.198;2023-02-18T02:51:55;92656.03;;;2.15;69.00
37206;BME280;23099;42.636;23.198;2023-02-18T02:54:26;92653.00;;;2.21;68.87
37206;BME280;23099;42.636;23.198;2023-02-18T02:57:05;92658.19;;;2.26;69.59
37206;BME280;23099;42.636;23.198;2023-02-18T02:59:35;92657.00;;;2.19;69.48
37206;BME280;23099;42.636;23.198;2023-02-18T03:02:15;92655.16;;;2.19;68.83
37206;BME280;23099;42.636;23.198;2023-02-18T03:05:07;92652.44;;;2.24;68.29
37206;BME280;23099;42.636;23.198;2023-02-18T03:10:54;92658.28;;;2.35;66.41
37206;BME280;23099;42.636;23.198;2023-02-18T03:13:35;92660.03;;;2.39;67.40
37206;BME280;23099;42.636;23.198;2023-02-18T03:16:13;92656.72;;;2.47;67.06
37206;BME280;23099;42.636;23.198;2023-02-18T03:18:44;92664.25;;;2.54;68.45
37206;BME280;23099;42.636;23.198;2023-02-18T03:21:16;92666.31;;;2.57;66.51
37206;BME280;23099;42.636;23.198;2023-02-18T03:23:48;92668.31;;;2.60;66.27
37206;BME280;23099;42.636;23.198;2023-02-18T03:26:20;92668.81;;;2.62;65.34
37206;BME280;23099;42.636;23.198;2023-02-18T03:28:48;92679.47;;;2.71;64.40
37206;BME280;23099;42.636;23.198;2023-02-18T03:31:19;92679.06;;;2.77;63.97
37206;BME280;23099;42.636;23.198;2023-02-18T03:33:50;92672.53;;;2.75;66.18
37206;BME280;23099;42.636;23.198;2023-02-18T03:36:18;92673.41;;;2.70;65.10
37206;BME280;23099;42.636;23.198;2023-02-18T03:38:49;92691.31;;;2.73;64.46
37206;BME280;23099;42.636;23.198;2023-02-18T03:41:20;92692.84;;;2.74;63.83
37206;BME280;23099;42.636;23.198;2023-02-18T03:43:51;92684.06;;;2.79;63.95
37206;BME280;23099;42.636;23.198;2023-02-18T03:46:19;92688.84;;;2.77;64.02
37206;BME280;23099;42.636;23.198;2023-02-18T03:48:46;92693.75;;;2.83;63.02
37206;BME280;23099;42.636;23.198;2023-02-18T03:51:13;92694.91;;;2.77;66.26
37206;BME280;23099;42.636;23.198;2023-02-18T03:53:39;92701.16;;;2.81;63.23
37206;BME280;23099;42.636;23.198;2023-02-18T03:56:06;92708.50;;;2.84;65.56
37206;BME280;23099;42.636;23.198;2023-02-18T03:58:34;92707.31;;;2.77;65.79
37206;BME280;23099;42.636;23.198;2023-02-18T04:01:01;92705.69;;;2.67;66.70
37206;BME280;23099;42.636;23.198;2023-02-18T04:03:28;92707.72;;;2.43;68.23
37206;BME280;23099;42.636;23.198;2023-02-18T04:05:54;92703.22;;;2.30;68.80
37206;BME280;23099;42.636;23.198;2023-02-18T04:08:21;92700.69;;;2.25;70.63
37206;BME280;23099;42.636;23.198;2023-02-18T04:10:48;92695.47;;;2.20;71.54
37206;BME280;23099;42.636;23.198;2023-02-18T04:13:15;92689.03;;;2.12;72.18
37206;BME280;23099;42.636;23.198;2023-02-18T04:15:43;92697.00;;;1.93;72.21
37206;BME280;23099;42.636;23.198;2023-02-18T04:18:10;92699.53;;;1.85;71.62
37206;BME280;23099;42.636;23.198;2023-02-18T04:20:37;92698.84;;;1.93;70.56
37206;BME280;23099;42.636;23.198;2023-02-18T04:23:04;92691.38;;;2.00;70.17
37206;BME280;23099;42.636;23.198;2023-02-18T04:25:31;92694.88;;;1.95;69.41
37206;BME280;23099;42.636;23.198;2023-02-18T04:27:57;92689.59;;;1.95;69.68
37206;BME280;23099;42.636;23.198;2023-02-18T04:30:24;92691.72;;;1.93;70.35
37206;BME280;23099;42.636;23.198;2023-02-18T04:32:52;92686.72;;;1.78;70.81
37206;BME280;23099;42.636;23.198;2023-02-18T04:35:19;92686.41;;;1.66;71.09
37206;BME280;23099;42.636;23.198;2023-02-18T04:37:46;92689.69;;;1.58;71.27
37206;BME280;23099;42.636;23.198;2023-02-18T04:40:13;92689.44;;;1.40;72.14
37206;BME280;23099;42.636;23.198;2023-02-18T04:42:39;92691.91;;;1.32;72.79
37206;BME280;23099;42.636;23.198;2023-02-18T04:45:07;92700.97;;;1.26;73.02
37206;BME280;23099;42.636;23.198;2023-02-18T04:47:34;92693.00;;;1.12;73.32
37206;BME280;23099;42.636;23.198;2023-02-18T04:50:02;92693.13;;;1.02;73.92
37206;BME280;23099;42.636;23.198;2023-02-18T04:52:29;92697.06;;;1.04;73.49
37206;BME280;23099;42.636;23.198;2023-02-18T04:54:55;92697.63;;;1.01;73.49
37206;BME280;23099;42.636;23.198;2023-02-18T04:57:22;92691.91;;;0.76;76.43
37206;BME280;23099;42.636;23.198;2023-02-18T04:59:48;92683.97;;;0.81;77.13
37206;BME280;23099;42.636;23.198;2023-02-18T05:02:15;92682.66;;;0.78;77.26
37206;BME280;23099;42.636;23.198;2023-02-18T05:04:42;92685.78;;;0.61;76.91
37206;BME280;23099;42.636;23.198;2023-02-18T05:07:10;92683.22;;;0.56;78.60
37206;BME280;23099;42.636;23.198;2023-02-18T05:09:37;92691.03;;;0.61;78.44
37206;BME280;23099;42.636;23.198;2023-02-18T05:12:03;92690.97;;;0.66;78.76
37206;BME280;23099;42.636;23.198;2023-02-18T05:14:30;92695.59;;;0.75;78.56
37206;BME280;23099;42.636;23.198;2023-02-18T05:16:57;92694.47;;;0.81;78.52
37206;BME280;23099;42.636;23.198;2023-02-18T05:19:24;92694.63;;;0.89;77.71
37206;BME280;23099;42.636;23.198;2023-02-18T05:21:50;92691.28;;;1.02;76.79
37206;BME280;23099;42.636;23.198;2023-02-18T05:24:18;92690.16;;;1.09;74.10
37206;BME280;23099;42.636;23.198;2023-02-18T05:26:45;92688.16;;;1.19;75.02
37206;BME280;23099;42.636;23.198;2023-02-18T05:29:12;92686.53;;;1.23;75.02
37206;BME280;23099;42.636;23.198;2023-02-18T05:31:38;92684.84;;;1.14;75.59
37206;BME280;23099;42.636;23.198;2023-02-18T05:34:05;92689.59;;;1.12;75.78
37206;BME280;23099;42.636;23.198;2023-02-18T05:36:32;92678.34;;;1.06;76.93
37206;BME280;23099;42.636;23.198;2023-02-18T05:38:58;92682.59;;;1.02;77.14
37206;BME280;23099;42.636;23.198;2023-02-18T05:41:27;92678.63;;;1.04;77.78
37206;BME280;23099;42.636;23.198;2023-02-18T05:43:53;92684.25;;;1.17;76.07
37206;BME280;23099;42.636;23.198;2023-02-18T05:46:37;92674.47;;;1.36;75.73
37206;BME280;23099;42.636;23.198;2023-02-18T05:49:04;92683.72;;;1.52;74.67
37206;BME280;23099;42.636;23.198;2023-02-18T05:51:31;92682.63;;;1.72;70.45
37206;BME280;23099;42.636;23.198;2023-02-18T05:53:57;92686.59;;;2.02;68.10
37206;BME280;23099;42.636;23.198;2023-02-18T05:56:24;92683.78;;;2.26;66.77
37206;BME280;23099;42.636;23.198;2023-02-18T05:58:52;92701.75;;;2.51;64.19
37206;BME280;23099;42.636;23.198;2023-02-18T06:01:19;92698.44;;;2.73;65.13
37206;BME280;23099;42.636;23.198;2023-02-18T06:03:45;92700.28;;;2.86;67.48
37206;BME280;23099;42.636;23.198;2023-02-18T06:06:12;92702.53;;;2.93;63.68
37206;BME280;23099;42.636;23.198;2023-02-18T06:08:39;92713.97;;;3.02;66.35
37206;BME280;23099;42.636;23.198;2023-02-18T06:11:05;92707.69;;;3.11;66.18
37206;BME280;23099;42.636;23.198;2023-02-18T06:13:32;92711.88;;;3.12;66.67
37206;BME280;23099;42.636;23.198;2023-02-18T06:16:00;92703.88;;;3.04;66.80
37206;BME280;23099;42.636;23.198;2023-02-18T06:18:27;92701.94;;;2.96;67.92
37206;BME280;23099;42.636;23.198;2023-02-18T06:20:54;92696.66;;;2.96;68.16
37206;BME280;23099;42.636;23.198;2023-02-18T06:23:21;92700.38;;;2.95;68.55
37206;BME280;23099;42.636;23.198;2023-02-18T06:25:48;92704.78;;;2.99;68.48
37206;BME280;23099;42.636;23.198;2023-02-18T06:28:15;92702.13;;;2.99;69.17
37206;BME280;23099;42.636;23.198;2023-02-18T06:30:41;92697.63;;;3.00;69.54
37206;BME280;23099;42.636;23.198;2023-02-18T06:33:10;92698.47;;;3.09;68.15
37206;BME280;23099;42.636;23.198;2023-02-18T06:35:38;92701.13;;;3.09;67.18
37206;BME280;23099;42.636;23.198;2023-02-18T06:38:05;92701.50;;;3.16;67.35
37206;BME280;23099;42.636;23.198;2023-02-18T06:40:32;92708.81;;;3.19;66.92
37206;BME280;23099;42.636;23.198;2023-02-18T06:42:58;92703.50;;;3.33;66.83
37206;BME280;23099;42.636;23.198;2023-02-18T06:45:25;92707.91;;;3.37;64.84
37206;BME280;23099;42.636;23.198;2023-02-18T06:47:52;92707.22;;;3.45;60.65
37206;BME280;23099;42.636;23.198;2023-02-18T06:50:20;92708.53;;;3.57;60.90
37206;BME280;23099;42.636;23.198;2023-02-18T06:52:47;92698.81;;;3.66;62.17
37206;BME280;23099;42.636;23.198;2023-02-18T06:55:13;92710.53;;;3.73;60.77
37206;BME280;23099;42.636;23.198;2023-02-18T06:57:40;92704.03;;;3.79;63.40
37206;BME280;23099;42.636;23.198;2023-02-18T07:00:07;92711.41;;;3.91;58.81
37206;BME280;23099;42.636;23.198;2023-02-18T07:02:34;92713.53;;;4.03;60.19
37206;BME280;23099;42.636;23.198;2023-02-18T07:05:01;92715.72;;;4.09;56.93
37206;BME280;23099;42.636;23.198;2023-02-18T07:07:29;92708.75;;;4.13;62.39
37206;BME280;23099;42.636;23.198;2023-02-18T07:09:56;92713.09;;;4.09;64.35
37206;BME280;23099;42.636;23.198;2023-02-18T07:12:23;92716.09;;;4.16;57.15
37206;BME280;23099;42.636;23.198;2023-02-18T07:14:49;92720.94;;;4.23;58.74
37206;BME280;23099;42.636;23.198;2023-02-18T07:17:16;92705.84;;;4.23;58.59
37206;BME280;23099;42.636;23.198;2023-02-18T07:19:43;92693.91;;;4.35;59.36
37206;BME280;23099;42.636;23.198;2023-02-18T07:22:09;92693.63;;;4.36;57.75
37206;BME280;23099;42.636;23.198;2023-02-18T07:24:37;92692.25;;;4.47;56.48
37206;BME280;23099;42.636;23.198;2023-02-18T07:27:04;92692.72;;;4.49;54.62
37206;BME280;23099;42.636;23.198;2023-02-18T07:29:31;92684.38;;;4.56;55.55
37206;BME280;23099;42.636;23.198;2023-02-18T07:31:57;92684.25;;;4.61;54.77
37206;BME280;23099;42.636;23.198;2023-02-18T07:34:24;92689.25;;;4.71;54.95
37206;BME280;23099;42.636;23.198;2023-02-18T07:36:51;92690.97;;;4.76;54.96
37206;BME280;23099;42.636;23.198;2023-02-18T07:39:17;92689.25;;;4.71;56.76
37206;BME280;23099;42.636;23.198;2023-02-18T07:41:46;92683.69;;;4.90;54.63
37206;BME280;23099;42.636;23.198;2023-02-18T07:44:13;92690.44;;;5.05;55.16
37206;BME280;23099;42.636;23.198;2023-02-18T07:46:40;92689.66;;;5.13;56.00
37206;BME280;23099;42.636;23.198;2023-02-18T07:49:07;92694.03;;;5.26;56.31
37206;BME280;23099;42.636;23.198;2023-02-18T07:51:34;92702.00;;;5.43;55.09
37206;BME280;23099;42.636;23.198;2023-02-18T07:54:02;92685.50;;;5.46;53.25
37206;BME280;23099;42.636;23.198;2023-02-18T07:56:29;92683.94;;;5.71;53.02
37206;BME280;23099;42.636;23.198;2023-02-18T07:58:57;92690.16;;;5.92;52.04
37206;BME280;23099;42.636;23.198;2023-02-18T08:01:24;92689.06;;;6.19;50.34
37206;BME280;23099;42.636;23.198;2023-02-18T08:03:50;92682.41;;;6.43;50.87
37206;BME280;23099;42.636;23.198;2023-02-18T08:06:20;92683.16;;;6.52;49.78
37206;BME280;23099;42.636;23.198;2023-02-18T08:08:47;92660.41;;;6.42;49.55
37206;BME280;23099;42.636;23.198;2023-02-18T08:11:15;92680.16;;;6.62;49.59
37206;BME280;23099;42.636;23.198;2023-02-18T08:13:41;92684.59;;;6.79;48.39
37206;BME280;23099;42.636;23.198;2023-02-18T08:16:09;92690.63;;;6.96;47.66
37206;BME280;23099;42.636;23.198;2023-02-18T08:18:36;92691.00;;;7.16;47.58
37206;BME280;23099;42.636;23.198;2023-02-18T08:21:03;92691.22;;;7.31;46.63
37206;BME280;23099;42.636;23.198;2023-02-18T08:23:30;92699.19;;;7.52;45.84
37206;BME280;23099;42.636;23.198;2023-02-18T08:25:56;92700.19;;;7.68;44.09
37206;BME280;23099;42.636;23.198;2023-02-18T08:28:23;92693.03;;;7.81;44.07
37206;BME280;23099;42.636;23.198;2023-02-18T08:30:51;92687.34;;;7.91;43.49
37206;BME280;23099;42.636;23.198;2023-02-18T08:33:21;92688.81;;;8.01;44.51
37206;BME280;23099;42.636;23.198;2023-02-18T08:35:49;92691.06;;;8.11;42.09
37206;BME280;23099;42.636;23.198;2023-02-18T08:38:17;92696.63;;;8.18;43.37
37206;BME280;23099;42.636;23.198;2023-02-18T08:40:44;92679.13;;;8.29;41.10
37206;BME280;23099;42.636;23.198;2023-02-18T08:43:11;92670.88;;;8.43;41.06
37206;BME280;23099;42.636;23.198;2023-02-18T08:45:38;92672.78;;;8.55;39.99
37206;BME280;23099;42.636;23.198;2023-02-18T08:48:06;92671.13;;;8.62;41.41
37206;BME280;23099;42.636;23.198;2023-02-18T08:50:34;92675.69;;;8.74;41.11
37206;BME280;23099;42.636;23.198;2023-02-18T08:53:02;92674.72;;;8.78;40.84
37206;BME280;23099;42.636;23.198;2023-02-18T08:55:29;92678.38;;;8.86;41.03
37206;BME280;23099;42.636;23.198;2023-02-18T08:57:56;92660.38;;;8.95;41.00
37206;BME280;23099;42.636;23.198;2023-02-18T09:00:22;92666.72;;;9.03;40.84
37206;BME280;23099;42.636;23.198;2023-02-18T09:02:49;92673.38;;;9.09;40.23
37206;BME280;23099;42.636;23.198;2023-02-18T09:05:16;92670.03;;;9.12;40.25
37206;BME280;23099;42.636;23.198;2023-02-18T09:07:44;92663.91;;;9.11;39.62
37206;BME280;23099;42.636;23.198;2023-02-18T09:10:11;92668.81;;;9.21;41.38
37206;BME280;23099;42.636;23.198;2023-02-18T09:12:38;92677.34;;;9.27;39.76
37206;BME280;23099;42.636;23.198;2023-02-18T09:15:06;92681.56;;;9.40;39.45
37206;BME280;23099;42.636;23.198;2023-02-18T09:17:34;92676.22;;;9.40;39.21
37206;BME280;23099;42.636;23.198;2023-02-18T09:20:00;92673.56;;;9.40;39.04
37206;BME280;23099;42.636;23.198;2023-02-18T09:22:28;92671.13;;;9.47;38.88
37206;BME280;23099;42.636;23.198;2023-02-18T09:24:56;92666.97;;;9.62;38.79
37206;BME280;23099;42.636;23.198;2023-02-18T09:27:22;92664.00;;;9.91;38.32
37206;BME280;23099;42.636;23.198;2023-02-18T09:29:50;92654.31;;;10.15;37.22
37206;BME280;23099;42.636;23.198;2023-02-18T09:32:17;92663.72;;;10.37;37.02
37206;BME280;23099;42.636;23.198;2023-02-18T09:34:44;92655.78;;;10.56;35.62
37206;BME280;23099;42.636;23.198;2023-02-18T09:37:11;92646.66;;;10.73;34.77
37206;BME280;23099;42.636;23.198;2023-02-18T09:39:38;92641.75;;;11.06;35.87
37206;BME280;23099;42.636;23.198;2023-02-18T09:42:13;92646.44;;;11.28;35.04
37206;BME280;23099;42.636;23.198;2023-02-18T09:44:44;92639.38;;;11.36;34.09
37206;BME280;23099;42.636;23.198;2023-02-18T09:47:16;92651.22;;;11.54;33.56
37206;BME280;23099;42.636;23.198;2023-02-18T09:49:46;92654.13;;;11.81;33.01
37206;BME280;23099;42.636;23.198;2023-02-18T09:52:18;92649.88;;;11.99;32.31
37206;BME280;23099;42.636;23.198;2023-02-18T09:54:48;92644.41;;;12.11;32.18
37206;BME280;23099;42.636;23.198;2023-02-18T09:57:22;92650.38;;;12.04;32.37
37206;BME280;23099;42.636;23.198;2023-02-18T10:00:05;92641.28;;;11.90;31.60
37206;BME280;23099;42.636;23.198;2023-02-18T10:02:32;92645.09;;;11.89;32.13
37206;BME280;23099;42.636;23.198;2023-02-18T10:04:59;92636.06;;;12.16;32.40
37206;BME280;23099;42.636;23.198;2023-02-18T10:07:28;92626.22;;;12.43;31.22
37206;BME280;23099;42.636;23.198;2023-02-18T10:09:59;92619.06;;;12.73;31.44
37206;BME280;23099;42.636;23.198;2023-02-18T10:12:31;92611.19;;;13.07;30.43
37206;BME280;23099;42.636;23.198;2023-02-18T10:14:59;92607.03;;;13.13;30.34
37206;BME280;23099;42.636;23.198;2023-02-18T10:17:29;92605.84;;;13.33;29.31
37206;BME280;23099;42.636;23.198;2023-02-18T10:19:58;92605.56;;;13.38;29.21
37206;BME280;23099;42.636;23.198;2023-02-18T10:22:26;92607.28;;;13.27;28.39
37206;BME280;23099;42.636;23.198;2023-02-18T10:24:55;92610.19;;;13.41;28.52
37206;BME280;23099;42.636;23.198;2023-02-18T10:27:24;92616.66;;;13.37;27.92
37206;BME280;23099;42.636;23.198;2023-02-18T10:29:53;92614.94;;;13.52;29.15
37206;BME280;23099;42.636;23.198;2023-02-18T10:32:23;92610.84;;;13.61;28.33
37206;BME280;23099;42.636;23.198;2023-02-18T10:34:53;92610.47;;;13.63;29.18
37206;BME280;23099;42.636;23.198;2023-02-18T10:37:45;92610.41;;;13.89;29.14
37206;BME280;23099;42.636;23.198;2023-02-18T10:40:21;92596.88;;;14.12;28.88
37206;BME280;23099;42.636;23.198;2023-02-18T10:43:01;92599.53;;;14.08;27.40
37206;BME280;23099;42.636;23.198;2023-02-18T10:45:37;92596.09;;;14.11;27.35
37206;BME280;23099;42.636;23.198;2023-02-18T10:48:18;92584.19;;;14.42;27.64
37206;BME280;23099;42.636;23.198;2023-02-18T10:50:51;92587.78;;;14.61;27.57
37206;BME280;23099;42.636;23.198;2023-02-18T10:53:24;92591.84;;;14.84;27.43
37206;BME280;23099;42.636;23.198;2023-02-18T10:55:54;92579.66;;;15.01;27.08
37206;BME280;23099;42.636;23.198;2023-02-18T10:58:24;92587.50;;;14.73;27.45
37206;BME280;23099;42.636;23.198;2023-02-18T11:00:52;92582.81;;;14.63;27.10
37206;BME280;23099;42.636;23.198;2023-02-18T11:03:21;92569.78;;;14.65;27.95
37206;BME280;23099;42.636;23.198;2023-02-18T11:05:52;92578.00;;;14.86;28.25
37206;BME280;23099;42.636;23.198;2023-02-18T11:08:22;92577.94;;;14.75;27.94
37206;BME280;23099;42.636;23.198;2023-02-18T11:10:50;92568.53;;;14.99;27.51
37206;BME280;23099;42.636;23.198;2023-02-18T11:13:24;92571.38;;;15.24;27.50
37206;BME280;23099;42.636;23.198;2023-02-18T11:15:58;92574.56;;;14.89;26.32
37206;BME280;23099;42.636;23.198;2023-02-18T11:18:29;92565.50;;;14.60;27.88
37206;BME280;23099;42.636;23.198;2023-02-18T11:21:00;92557.22;;;14.39;28.70
37206;BME280;23099;42.636;23.198;2023-02-18T11:23:28;92560.84;;;14.54;28.02
37206;BME280;23099;42.636;23.198;2023-02-18T11:25:58;92552.97;;;14.78;27.58
37206;BME280;23099;42.636;23.198;2023-02-18T11:28:34;92552.78;;;15.05;27.25
37206;BME280;23099;42.636;23.198;2023-02-18T11:31:08;92552.56;;;15.31;28.16
37206;BME280;23099;42.636;23.198;2023-02-18T11:33:40;92554.47;;;15.27;26.98
37206;BME280;23099;42.636;23.198;2023-02-18T11:36:17;92540.38;;;15.51;29.05
37206;BME280;23099;42.636;23.198;2023-02-18T11:38:48;92519.41;;;15.20;27.69
37206;BME280;23099;42.636;23.198;2023-02-18T11:41:17;92514.75;;;15.10;28.06
37206;BME280;23099;42.636;23.198;2023-02-18T11:43:48;92516.81;;;15.34;26.72
37206;BME280;23099;42.636;23.198;2023-02-18T11:46:18;92510.31;;;15.46;27.52
37206;BME280;23099;42.636;23.198;2023-02-18T11:48:46;92509.63;;;15.56;27.24
37206;BME280;23099;42.636;23.198;2023-02-18T11:51:19;92516.16;;;15.59;27.82
37206;BME280;23099;42.636;23.198;2023-02-18T11:54:00;92496.63;;;15.76;27.75
37206;BME280;23099;42.636;23.198;2023-02-18T11:56:29;92506.19;;;15.55;28.14
37206;BME280;23099;42.636;23.198;2023-02-18T11:58:57;92495.69;;;15.43;27.66
37206;BME280;23099;42.636;23.198;2023-02-18T12:01:34;92496.97;;;15.64;27.80
37206;BME280;23099;42.636;23.198;2023-02-18T12:04:09;92493.16;;;15.79;27.20
37206;BME280;23099;42.636;23.198;2023-02-18T12:06:40;92494.31;;;15.71;27.85
37206;BME280;23099;42.636;23.198;2023-02-18T12:09:18;92485.41;;;15.63;28.00
37206;BME280;23099;42.636;23.198;2023-02-18T12:11:48;92478.97;;;16.03;28.30
37206;BME280;23099;42.636;23.198;2023-02-18T12:14:19;92474.72;;;15.95;27.93
37206;BME280;23099;42.636;23.198;2023-02-18T12:19:57;92467.50;;;16.74;26.98
37206;BME280;23099;42.636;23.198;2023-02-18T12:22:36;92472.09;;;16.41;27.65
37206;BME280;23099;42.636;23.198;2023-02-18T12:25:19;92473.25;;;16.15;26.88
37206;BME280;23099;42.636;23.198;2023-02-18T12:27:55;92474.38;;;16.07;28.16
37206;BME280;23099;42.636;23.198;2023-02-18T12:30:38;92472.44;;;16.08;27.64
37206;BME280;23099;42.636;23.198;2023-02-18T12:33:17;92479.72;;;15.89;27.93
37206;BME280;23099;42.636;23.198;2023-02-18T12:35:57;92469.13;;;15.45;28.42
37206;BME280;23099;42.636;23.198;2023-02-18T12:38:53;92465.63;;;15.34;28.99
37206;BME280;23099;42.636;23.198;2023-02-18T12:41:33;92450.16;;;15.13;29.14
37206;BME280;23099;42.636;23.198;2023-02-18T12:44:13;92451.28;;;15.09;28.51
37206;BME280;23099;42.636;23.198;2023-02-18T12:46:56;92442.00;;;15.03;30.14
37206;BME280;23099;42.636;23.198;2023-02-18T12:49:42;92448.00;;;14.71;29.81
37206;BME280;23099;42.636;23.198;2023-02-18T12:52:20;92436.16;;;14.83;30.27
37206;BME280;23099;42.636;23.198;2023-02-18T12:58:12;92431.31;;;14.52;30.61
37206;BME280;23099;42.636;23.198;2023-02-18T13:00:53;92431.59;;;14.39;30.52
37206;BME280;23099;42.636;23.198;2023-02-18T13:06:24;92438.75;;;14.72;31.49
37206;BME280;23099;42.636;23.198;2023-02-18T13:09:02;92437.25;;;14.75;31.05
37206;BME280;23099;42.636;23.198;2023-02-18T13:11:38;92434.63;;;14.89;32.04
37206;BME280;23099;42.636;23.198;2023-02-18T13:14:11;92435.28;;;14.72;31.13
37206;BME280;23099;42.636;23.198;2023-02-18T13:16:41;92437.66;;;14.80;31.20
37206;BME280;23099;42.636;23.198;2023-02-18T13:19:17;92442.66;;;14.78;30.78
37206;BME280;23099;42.636;23.198;2023-02-18T13:21:47;92448.84;;;14.82;31.03
37206;BME280;23099;42.636;23.198;2023-02-18T13:24:23;92452.19;;;14.69;30.71
37206;BME280;23099;42.636;23.198;2023-02-18T13:26:53;92452.78;;;14.44;31.19